createdAt,value
2023-04-07T00:00:23.106Z,5.78
2023-04-07T00:02:49.923Z,7.32
2023-04-07T00:05:16.452Z,6.57
2023-04-07T00:07:53.026Z,6.90
2023-04-07T00:10:22.800Z,6.53
2023-04-07T00:12:49.241Z,6.45
2023-04-07T00:15:15.631Z,6.50
2023-04-07T00:17:42.410Z,6.25
2023-04-07T00:20:09.240Z,5.80
2023-04-07T00:22:35.553Z,6.53
2023-04-07T00:25:01.964Z,6.30
2023-04-07T00:27:28.505Z,6.78
2023-04-07T00:29:55.437Z,7.05
2023-04-07T00:32:22.706Z,6.35
2023-04-07T00:34:49.460Z,6.53
2023-04-07T00:37:16.131Z,7.10
2023-04-07T00:39:42.660Z,6.10
2023-04-07T00:42:09.264Z,6.93
2023-04-07T00:44:35.905Z,7.63
2023-04-07T00:47:02.562Z,7.20
2023-04-07T00:49:28.959Z,7.68
2023-04-07T00:51:56.305Z,5.68
2023-04-07T00:54:26.243Z,4.95
2023-04-07T00:56:53.269Z,6.00
2023-04-07T00:59:20.394Z,7.13
2023-04-07T01:01:58.831Z,5.80
2023-04-07T01:04:50.802Z,6.57
2023-04-07T01:07:29.170Z,6.90
2023-04-07T01:10:02.096Z,6.05
2023-04-07T01:12:44.443Z,7.38
2023-04-07T01:15:12.706Z,5.97
2023-04-07T01:17:53.027Z,7.25
2023-04-07T01:20:22.876Z,6.82
2023-04-07T01:22:57.751Z,7.07
2023-04-07T01:25:34.958Z,7.20
2023-04-07T01:28:01.314Z,6.78
2023-04-07T01:30:31.405Z,8.07
2023-04-07T01:32:59.903Z,6.80
2023-04-07T01:35:29.609Z,6.30
2023-04-07T01:37:56.754Z,6.97
2023-04-07T01:40:25.296Z,6.32
2023-04-07T01:42:53.464Z,6.43
2023-04-07T01:45:20.660Z,7.18
2023-04-07T01:47:47.702Z,6.45
2023-04-07T01:50:15.011Z,6.88
2023-04-07T01:52:42.599Z,6.82
2023-04-07T01:55:10.592Z,7.20
2023-04-07T01:57:37.034Z,6.20
2023-04-07T02:00:03.990Z,6.68
2023-04-07T02:02:37.298Z,6.70
2023-04-07T02:05:09.688Z,6.32
2023-04-07T02:07:55.986Z,5.90
2023-04-07T02:10:25.732Z,5.85
2023-04-07T02:12:53.039Z,6.13
2023-04-07T02:15:19.747Z,6.32
2023-04-07T02:17:49.808Z,7.60
2023-04-07T02:20:17.506Z,6.20
2023-04-07T02:22:44.404Z,6.63
2023-04-07T02:25:31.921Z,4.60
2023-04-07T02:27:59.830Z,6.10
2023-04-07T02:30:26.731Z,6.13
2023-04-07T02:32:53.833Z,7.97
2023-04-07T02:35:20.677Z,6.40
2023-04-07T02:37:47.469Z,6.47
2023-04-07T02:40:14.293Z,5.85
2023-04-07T02:42:40.689Z,5.65
2023-04-07T02:45:08.296Z,6.38
2023-04-07T02:47:35.704Z,6.28
2023-04-07T02:50:02.736Z,7.50
2023-04-07T02:52:29.168Z,6.97
2023-04-07T02:54:55.590Z,6.82
2023-04-07T02:57:22.248Z,6.78
2023-04-07T02:59:48.595Z,6.55
2023-04-07T03:02:15.215Z,5.95
2023-04-07T03:04:41.796Z,6.43
2023-04-07T03:07:08.188Z,7.72
2023-04-07T03:09:34.774Z,6.55
2023-04-07T03:12:01.278Z,6.00
2023-04-07T03:14:27.633Z,6.43
2023-04-07T03:16:54.083Z,6.10
2023-04-07T03:19:20.529Z,5.90
2023-04-07T03:21:46.928Z,6.30
2023-04-07T03:24:13.343Z,6.63
2023-04-07T03:26:39.784Z,7.72
2023-04-07T03:29:06.277Z,6.40
2023-04-07T03:31:32.642Z,6.88
2023-04-07T03:33:59.063Z,7.05
2023-04-07T03:36:25.451Z,6.50
2023-04-07T03:38:51.893Z,6.38
2023-04-07T03:41:18.242Z,6.82
2023-04-07T03:43:44.740Z,7.22
2023-04-07T03:46:11.375Z,5.78
2023-04-07T03:48:37.728Z,6.65
2023-04-07T03:51:04.518Z,5.80
2023-04-07T03:53:30.823Z,7.25
2023-04-07T03:55:57.226Z,6.82
2023-04-07T03:58:23.640Z,6.28
2023-04-07T04:00:50.031Z,6.47
2023-04-07T04:03:16.931Z,7.40
2023-04-07T04:05:43.555Z,6.88
2023-04-07T04:08:09.944Z,6.00
2023-04-07T04:10:36.870Z,6.40
2023-04-07T04:13:03.427Z,7.60
2023-04-07T04:15:29.763Z,6.70
2023-04-07T04:17:56.260Z,6.20
2023-04-07T04:20:22.598Z,7.60
2023-04-07T04:22:49.013Z,7.22
2023-04-07T04:25:17.154Z,5.40
2023-04-07T04:27:43.457Z,6.82
2023-04-07T04:30:09.961Z,7.43
2023-04-07T04:32:39.486Z,7.03
2023-04-07T04:35:06.202Z,6.90
2023-04-07T04:37:32.569Z,7.22
2023-04-07T04:39:59.390Z,7.15
2023-04-07T04:42:25.712Z,6.45
2023-04-07T04:44:52.371Z,7.63
2023-04-07T04:47:18.769Z,6.28
2023-04-07T04:49:45.358Z,8.02
2023-04-07T04:52:11.793Z,7.28
2023-04-07T04:54:38.655Z,6.30
2023-04-07T04:57:05.066Z,7.30
2023-04-07T04:59:31.523Z,5.68
2023-04-07T05:01:57.999Z,8.50
2023-04-07T05:04:24.671Z,7.15
2023-04-07T05:06:51.335Z,6.57
2023-04-07T05:09:17.676Z,8.27
2023-04-07T05:11:44.135Z,7.05
2023-04-07T05:14:10.658Z,7.60
2023-04-07T05:16:37.212Z,8.70
2023-04-07T05:19:03.739Z,5.90
2023-04-07T05:21:30.080Z,7.57
2023-04-07T05:23:56.704Z,8.15
2023-04-07T05:26:23.125Z,9.57
2023-04-07T05:28:49.631Z,7.43
2023-04-07T05:31:16.059Z,7.53
2023-04-07T05:33:42.465Z,7.95
2023-04-07T05:36:08.986Z,7.10
2023-04-07T05:38:35.494Z,8.57
2023-04-07T05:41:01.846Z,8.25
2023-04-07T05:43:28.227Z,10.07
2023-04-07T05:45:54.717Z,11.05
2023-04-07T05:48:21.369Z,9.68
2023-04-07T05:50:47.698Z,10.15
2023-04-07T05:53:14.369Z,9.02
2023-04-07T05:55:43.015Z,7.60
2023-04-07T05:58:09.574Z,8.73
2023-04-07T06:00:35.899Z,8.10
2023-04-07T06:03:02.619Z,8.77
2023-04-07T06:05:29.255Z,8.20
2023-04-07T06:07:55.888Z,8.27
2023-04-07T06:10:22.409Z,9.45
2023-04-07T06:12:48.706Z,9.00
2023-04-07T06:15:15.219Z,8.68
2023-04-07T06:17:41.641Z,8.60
2023-04-07T06:20:08.346Z,7.85
2023-04-07T06:22:34.829Z,7.78
2023-04-07T06:25:01.481Z,9.00
2023-04-07T06:27:27.987Z,8.38
2023-04-07T06:29:54.527Z,8.50
2023-04-07T06:32:20.931Z,7.45
2023-04-07T06:34:47.274Z,7.75
2023-04-07T06:37:13.895Z,7.78
2023-04-07T06:39:40.439Z,8.25
2023-04-07T06:42:06.798Z,7.82
2023-04-07T06:44:33.217Z,8.57
2023-04-07T06:46:59.563Z,8.00
2023-04-07T06:49:25.930Z,8.43
2023-04-07T06:51:52.244Z,8.27
2023-04-07T06:54:18.661Z,8.55
2023-04-07T06:56:44.981Z,8.52
2023-04-07T06:59:11.319Z,7.53
2023-04-07T07:01:38.139Z,8.52
2023-04-07T07:04:04.817Z,7.82
2023-04-07T07:06:31.279Z,6.95
2023-04-07T07:08:57.713Z,8.15
2023-04-07T07:11:24.050Z,6.72
2023-04-07T07:13:50.735Z,9.65
2023-04-07T07:16:17.287Z,8.40
2023-04-07T07:18:43.735Z,7.63
2023-04-07T07:21:10.114Z,8.07
2023-04-07T07:23:36.628Z,6.97
2023-04-07T07:26:03.840Z,8.52
2023-04-07T07:28:30.214Z,7.40
2023-04-07T07:30:56.663Z,8.52
2023-04-07T07:33:23.083Z,7.68
2023-04-07T07:35:49.615Z,7.18
2023-04-07T07:38:15.952Z,7.43
2023-04-07T07:40:42.360Z,7.47
2023-04-07T07:43:08.776Z,8.00
2023-04-07T07:45:35.153Z,8.00
2023-04-07T07:48:01.589Z,8.85
2023-04-07T07:50:28.228Z,7.07
2023-04-07T07:52:54.659Z,8.25
2023-04-07T07:55:21.016Z,6.55
2023-04-07T07:57:47.799Z,9.25
2023-04-07T08:00:15.137Z,8.18
2023-04-07T08:02:41.740Z,7.22
2023-04-07T08:05:08.742Z,8.68
2023-04-07T08:07:35.201Z,7.07
2023-04-07T08:10:01.577Z,7.28
2023-04-07T08:12:27.978Z,7.35
2023-04-07T08:14:54.338Z,7.30
2023-04-07T08:17:20.650Z,6.28
2023-04-07T08:19:47.202Z,6.40
2023-04-07T08:22:13.607Z,5.88
2023-04-07T08:24:40.122Z,5.32
2023-04-07T08:27:06.541Z,5.38
2023-04-07T08:29:32.892Z,5.47
2023-04-07T08:31:59.352Z,5.05
2023-04-07T08:34:25.750Z,5.30
2023-04-07T08:36:52.403Z,5.53
2023-04-07T08:39:18.887Z,6.03
2023-04-07T08:41:46.974Z,5.55
2023-04-07T08:44:15.406Z,5.07
2023-04-07T08:46:43.292Z,6.07
2023-04-07T08:49:12.297Z,6.28
2023-04-07T08:51:44.857Z,5.30
2023-04-07T08:54:14.047Z,5.32
2023-04-07T08:56:42.282Z,5.63
2023-04-07T08:59:14.125Z,5.93
2023-04-07T09:01:41.871Z,5.63
2023-04-07T09:04:09.884Z,5.45
2023-04-07T09:06:37.081Z,6.13
2023-04-07T09:09:04.515Z,5.45
2023-04-07T09:11:34.480Z,5.53
2023-04-07T09:14:01.412Z,6.50
2023-04-07T09:16:29.368Z,6.15
2023-04-07T09:18:56.001Z,6.60
2023-04-07T09:21:22.514Z,6.47
2023-04-07T09:23:50.293Z,6.25
2023-04-07T09:26:27.798Z,5.78
2023-04-07T09:29:02.958Z,5.90
2023-04-07T09:31:45.978Z,5.82
2023-04-07T09:34:36.244Z,6.13
2023-04-07T09:37:04.672Z,5.57
2023-04-07T09:39:31.414Z,5.18
2023-04-07T09:41:58.327Z,5.03
2023-04-07T09:44:25.722Z,4.50
2023-04-07T09:46:57.487Z,5.50
2023-04-07T09:49:25.421Z,4.30
2023-04-07T09:51:57.709Z,4.78
2023-04-07T09:54:37.651Z,5.32
2023-04-07T09:57:05.951Z,5.43
2023-04-07T09:59:33.929Z,5.22
2023-04-07T10:02:00.850Z,5.68
2023-04-07T10:04:27.972Z,5.07
2023-04-07T10:06:54.965Z,5.80
2023-04-07T10:09:24.558Z,5.43
2023-04-07T10:11:52.550Z,5.45
2023-04-07T10:14:21.025Z,4.95
2023-04-07T10:16:48.243Z,5.40
2023-04-07T10:19:15.420Z,4.63
2023-04-07T10:21:43.701Z,4.90
2023-04-07T10:24:54.243Z,5.22
2023-04-07T10:27:34.289Z,5.20
2023-04-07T10:30:02.125Z,4.70
2023-04-07T10:32:28.802Z,5.53
2023-04-07T10:34:56.932Z,6.38
2023-04-07T10:37:24.845Z,5.85
2023-04-07T10:40:12.601Z,6.25
2023-04-07T10:42:38.891Z,5.93
2023-04-07T10:45:06.645Z,5.03
2023-04-07T10:47:33.119Z,5.40
2023-04-07T10:50:16.883Z,6.00
2023-04-07T10:52:44.160Z,5.97
2023-04-07T10:55:32.745Z,5.75
2023-04-07T10:58:27.232Z,5.95
2023-04-07T11:01:07.501Z,6.28
2023-04-07T11:03:36.395Z,6.00
2023-04-07T11:06:06.368Z,5.78
2023-04-07T11:08:40.309Z,5.85
2023-04-07T11:11:08.439Z,6.38
2023-04-07T11:13:41.094Z,5.97
2023-04-07T11:16:07.914Z,6.30
2023-04-07T11:18:35.771Z,6.13
2023-04-07T11:21:02.144Z,5.78
2023-04-07T11:23:28.880Z,6.90
2023-04-07T11:26:01.682Z,6.93
2023-04-07T11:28:29.327Z,7.00
2023-04-07T11:30:56.264Z,5.20
2023-04-07T11:33:28.080Z,5.90
2023-04-07T11:36:01.534Z,6.07
2023-04-07T11:38:37.143Z,5.75
2023-04-07T11:41:12.322Z,6.53
2023-04-07T11:43:38.806Z,6.32
2023-04-07T11:46:12.765Z,6.53
2023-04-07T11:48:40.941Z,6.05
2023-04-07T11:51:16.456Z,6.35
2023-04-07T11:53:43.042Z,5.32
2023-04-07T11:56:14.445Z,6.05
2023-04-07T11:58:47.199Z,5.85
2023-04-07T12:01:13.604Z,5.72
2023-04-07T12:03:59.654Z,6.07
2023-04-07T12:06:34.414Z,6.47
2023-04-07T12:09:02.412Z,5.53
2023-04-07T12:11:28.889Z,5.50
2023-04-07T12:13:55.241Z,6.25
2023-04-07T12:16:21.751Z,6.18
2023-04-07T12:18:48.139Z,6.68
2023-04-07T12:21:14.516Z,6.60
2023-04-07T12:23:40.985Z,6.75
2023-04-07T12:26:07.372Z,6.65
2023-04-07T12:28:34.161Z,6.13
2023-04-07T12:31:00.479Z,6.97
2023-04-07T12:33:26.836Z,5.70
2023-04-07T12:35:53.447Z,6.43
2023-04-07T12:38:20.975Z,6.50
2023-04-07T12:40:47.650Z,6.47
2023-04-07T12:43:14.097Z,7.25
2023-04-07T12:45:40.466Z,6.53
2023-04-07T12:48:07.095Z,6.75
2023-04-07T12:50:35.800Z,7.00
2023-04-07T12:53:02.342Z,7.05
2023-04-07T12:55:29.110Z,7.28
2023-04-07T12:57:58.134Z,7.13
2023-04-07T13:00:24.511Z,6.70
2023-04-07T13:02:51.082Z,6.35
2023-04-07T13:05:17.689Z,6.07
2023-04-07T13:07:44.683Z,6.90
2023-04-07T13:10:11.115Z,6.00
2023-04-07T13:12:37.630Z,6.40
2023-04-07T13:15:04.568Z,6.18
2023-04-07T13:17:31.001Z,6.20
2023-04-07T13:19:57.430Z,6.20
2023-04-07T13:22:24.821Z,4.95
2023-04-07T13:24:51.559Z,6.50
2023-04-07T13:27:18.240Z,6.25
2023-04-07T13:29:44.936Z,5.97
2023-04-07T13:32:11.978Z,6.57
2023-04-07T13:34:39.108Z,7.00
2023-04-07T13:37:05.749Z,5.40
2023-04-07T13:39:33.389Z,6.35
2023-04-07T13:41:59.703Z,5.75
2023-04-07T13:44:26.724Z,5.97
2023-04-07T13:46:53.871Z,6.38
2023-04-07T13:49:20.339Z,5.18
2023-04-07T13:51:46.642Z,5.55
2023-04-07T13:54:13.052Z,6.20
2023-04-07T13:56:39.469Z,6.07
2023-04-07T13:59:07.845Z,6.72
2023-04-07T14:01:35.187Z,5.85
2023-04-07T14:04:02.480Z,6.22
2023-04-07T14:06:29.197Z,6.22
2023-04-07T14:08:55.531Z,6.38
2023-04-07T14:11:22.223Z,5.13
2023-04-07T14:13:50.166Z,5.13
2023-04-07T14:16:17.530Z,4.72
2023-04-07T14:18:44.578Z,5.97
2023-04-07T14:21:11.053Z,5.55
2023-04-07T14:23:38.114Z,5.57
2023-04-07T14:26:04.544Z,4.55
2023-04-07T14:28:30.868Z,5.35
2023-04-07T14:30:57.344Z,5.05
2023-04-07T14:33:23.765Z,5.78
2023-04-07T14:35:50.252Z,6.55
2023-04-07T14:38:16.682Z,5.43
2023-04-07T14:40:43.033Z,5.22
2023-04-07T14:43:09.507Z,5.78
2023-04-07T14:45:36.010Z,5.63
2023-04-07T14:48:02.628Z,4.95
2023-04-07T14:50:31.534Z,5.50
2023-04-07T14:52:57.878Z,5.93
2023-04-07T14:55:24.479Z,6.00
2023-04-07T14:57:50.848Z,4.85
2023-04-07T15:00:17.397Z,5.63
2023-04-07T15:02:43.942Z,5.32
2023-04-07T15:05:10.931Z,5.38
2023-04-07T15:07:37.258Z,4.38
2023-04-07T15:10:03.853Z,5.15
2023-04-07T15:12:30.285Z,4.97
2023-04-07T15:14:56.804Z,5.35
2023-04-07T15:17:33.099Z,4.20
2023-04-07T15:20:07.236Z,5.30
2023-04-07T15:22:33.680Z,5.95
2023-04-07T15:25:00.051Z,4.75
2023-04-07T15:27:26.577Z,4.65
2023-04-07T15:29:52.919Z,4.68
2023-04-07T15:32:19.488Z,4.22
2023-04-07T15:34:45.877Z,4.75
2023-04-07T15:37:12.287Z,4.82
2023-04-07T15:39:38.819Z,4.78
2023-04-07T15:42:05.205Z,4.63
2023-04-07T15:44:31.592Z,4.97
2023-04-07T15:46:57.966Z,4.68
2023-04-07T15:49:26.154Z,4.65
2023-04-07T15:51:52.711Z,5.13
2023-04-07T15:54:19.096Z,4.43
2023-04-07T15:56:45.571Z,5.35
2023-04-07T15:59:11.886Z,4.82
2023-04-07T16:01:38.272Z,5.13
2023-04-07T16:04:04.949Z,4.82
2023-04-07T16:06:31.383Z,4.47
2023-04-07T16:08:57.963Z,5.40
2023-04-07T16:11:24.282Z,5.57
2023-04-07T16:13:50.811Z,4.72
2023-04-07T16:16:17.436Z,4.50
2023-04-07T16:18:44.054Z,5.05
2023-04-07T16:21:10.363Z,5.22
2023-04-07T16:23:36.838Z,4.63
2023-04-07T16:26:03.485Z,5.28
2023-04-07T16:28:29.989Z,5.30
2023-04-07T16:30:56.463Z,5.00
2023-04-07T16:33:24.336Z,5.70
2023-04-07T16:35:52.272Z,5.35
2023-04-07T16:38:18.704Z,4.85
2023-04-07T16:40:56.866Z,4.68
2023-04-07T16:43:29.559Z,4.57
2023-04-07T16:45:55.958Z,5.18
2023-04-07T16:48:22.382Z,5.57
2023-04-07T16:50:48.871Z,5.95
2023-04-07T16:53:15.229Z,5.05
2023-04-07T16:55:41.608Z,4.78
2023-04-07T16:58:07.947Z,5.30
2023-04-07T17:00:34.450Z,5.25
2023-04-07T17:03:01.085Z,4.63
2023-04-07T17:05:27.573Z,4.45
2023-04-07T17:07:55.572Z,5.57
2023-04-07T17:10:23.130Z,5.78
2023-04-07T17:12:49.678Z,5.70
2023-04-07T17:15:16.093Z,5.07
2023-04-07T17:17:42.495Z,5.57
2023-04-07T17:20:09.196Z,4.78
2023-04-07T17:22:35.537Z,4.63
2023-04-07T17:25:01.936Z,5.03
2023-04-07T17:27:28.318Z,5.30
2023-04-07T17:29:54.675Z,5.35
2023-04-07T17:32:21.162Z,4.97
2023-04-07T17:34:47.800Z,5.60
2023-04-07T17:37:14.217Z,5.90
2023-04-07T17:39:41.013Z,4.65
2023-04-07T17:42:07.336Z,5.55
2023-04-07T17:44:33.894Z,5.80
2023-04-07T17:47:00.255Z,6.43
2023-04-07T17:49:26.688Z,5.80
2023-04-07T17:51:53.085Z,5.40
2023-04-07T17:54:19.870Z,4.65
2023-04-07T17:56:46.166Z,5.45
2023-04-07T17:59:12.638Z,6.15
2023-04-07T18:01:39.352Z,5.82
2023-04-07T18:04:06.665Z,6.00
2023-04-07T18:06:33.430Z,5.45
2023-04-07T18:08:59.805Z,6.18
2023-04-07T18:11:26.235Z,5.03
2023-04-07T18:13:52.959Z,5.45
2023-04-07T18:16:21.852Z,5.47
2023-04-07T18:18:48.728Z,4.88
2023-04-07T18:21:15.096Z,4.50
2023-04-07T18:23:41.496Z,5.53
2023-04-07T18:26:07.820Z,7.30
2023-04-07T18:28:34.520Z,6.40
2023-04-07T18:31:05.865Z,7.10
2023-04-07T18:33:32.539Z,6.70
2023-04-07T18:36:00.618Z,6.07
2023-04-07T18:38:27.051Z,5.97
2023-04-07T18:40:54.013Z,5.18
2023-04-07T18:43:20.369Z,4.78
2023-04-07T18:45:46.758Z,5.88
2023-04-07T18:48:13.094Z,4.93
2023-04-07T18:50:39.550Z,6.00
2023-04-07T18:53:05.857Z,5.50
2023-04-07T18:55:32.480Z,5.03
2023-04-07T18:57:58.899Z,4.68
2023-04-07T19:00:25.488Z,4.75
2023-04-07T19:02:52.349Z,5.13
2023-04-07T19:05:22.381Z,4.22
2023-04-07T19:07:51.014Z,5.15
2023-04-07T19:10:17.483Z,4.72
2023-04-07T19:12:43.782Z,3.95
2023-04-07T19:15:11.452Z,5.47
2023-04-07T19:17:37.984Z,6.28
2023-04-07T19:20:05.306Z,5.90
2023-04-07T19:22:31.758Z,6.28
2023-04-07T19:24:58.140Z,6.28
2023-04-07T19:27:24.533Z,10.10
2023-04-07T19:29:51.060Z,7.40
2023-04-07T19:32:17.432Z,7.32
2023-04-07T19:34:43.785Z,6.32
2023-04-07T19:37:10.260Z,6.85
2023-04-07T19:39:36.738Z,6.95
2023-04-07T19:42:03.164Z,5.82
2023-04-07T19:44:29.522Z,6.35
2023-04-07T19:46:56.028Z,5.60
2023-04-07T19:49:22.544Z,5.82
2023-04-07T19:51:48.923Z,5.95
2023-04-07T19:54:15.219Z,5.65
2023-04-07T19:56:41.605Z,4.97
2023-04-07T19:59:07.926Z,5.10
2023-04-07T20:01:34.369Z,6.65
2023-04-07T20:04:00.830Z,6.40
2023-04-07T20:06:27.213Z,7.18
2023-04-07T20:08:53.653Z,11.75
2023-04-07T20:11:20.078Z,8.57
2023-04-07T20:13:47.793Z,27.25
2023-04-07T20:16:14.327Z,38.05
2023-04-07T20:18:40.687Z,27.63
2023-04-07T20:21:07.115Z,18.33
2023-04-07T20:23:34.321Z,8.10
2023-04-07T20:26:00.777Z,5.97
2023-04-07T20:28:27.171Z,5.85
2023-04-07T20:30:53.798Z,6.72
2023-04-07T20:33:20.122Z,5.25
2023-04-07T20:35:46.557Z,5.05
2023-04-07T20:38:13.402Z,6.03
2023-04-07T20:40:40.185Z,8.68
2023-04-07T20:43:06.984Z,7.75
2023-04-07T20:45:33.392Z,7.97
2023-04-07T20:47:59.945Z,8.73
2023-04-07T20:50:26.272Z,8.13
2023-04-07T20:52:52.736Z,6.03
2023-04-07T20:55:19.271Z,5.43
2023-04-07T20:57:45.909Z,5.25
2023-04-07T21:00:12.705Z,4.40
2023-04-07T21:02:39.253Z,5.75
2023-04-07T21:05:06.118Z,4.38
2023-04-07T21:07:32.405Z,4.07
2023-04-07T21:09:58.723Z,4.35
2023-04-07T21:12:25.182Z,4.15
2023-04-07T21:14:51.473Z,4.30
2023-04-07T21:17:17.842Z,4.32
2023-04-07T21:19:44.334Z,4.32
2023-04-07T21:22:10.650Z,3.63
2023-04-07T21:24:36.949Z,4.20
2023-04-07T21:27:03.403Z,3.75
2023-04-07T21:29:30.181Z,3.30
2023-04-07T21:31:56.500Z,3.47
2023-04-07T21:34:23.108Z,3.28
2023-04-07T21:36:49.471Z,2.97
2023-04-07T21:39:15.976Z,3.63
2023-04-07T21:41:42.275Z,3.83
2023-04-07T21:44:09.899Z,4.07
2023-04-07T21:46:36.579Z,4.15
2023-04-07T21:49:02.903Z,3.90
2023-04-07T21:51:29.496Z,3.97
2023-04-07T21:53:56.744Z,3.85
2023-04-07T21:56:23.158Z,3.95
2023-04-07T21:58:49.674Z,4.32
2023-04-07T22:01:17.619Z,4.18
2023-04-07T22:03:44.139Z,3.15
2023-04-07T22:06:10.498Z,3.03
2023-04-07T22:08:36.863Z,2.90
2023-04-07T22:11:03.369Z,3.50
2023-04-07T22:13:29.765Z,2.63
2023-04-07T22:15:56.283Z,2.55
2023-04-07T22:18:22.707Z,2.10
2023-04-07T22:20:49.083Z,2.58
2023-04-07T22:23:15.781Z,2.15
2023-04-07T22:25:42.074Z,2.60
2023-04-07T22:28:08.458Z,2.30
2023-04-07T22:30:34.823Z,2.22
2023-04-07T22:33:01.394Z,2.30
2023-04-07T22:35:27.791Z,2.78
2023-04-07T22:37:54.196Z,2.28
2023-04-07T22:40:20.787Z,2.33
2023-04-07T22:42:47.142Z,3.17
2023-04-07T22:45:13.532Z,2.97
2023-04-07T22:47:40.306Z,3.00
2023-04-07T22:50:07.249Z,2.97
2023-04-07T22:52:33.980Z,2.60
2023-04-07T22:55:00.335Z,2.47
2023-04-07T22:57:26.659Z,1.70
2023-04-07T22:59:53.163Z,2.70
2023-04-07T23:02:20.246Z,2.38
2023-04-07T23:04:46.792Z,2.53
2023-04-07T23:07:13.098Z,2.80
2023-04-07T23:09:39.452Z,2.33
2023-04-07T23:12:05.865Z,2.55
2023-04-07T23:14:32.196Z,2.22
2023-04-07T23:16:58.589Z,2.42
2023-04-07T23:19:25.089Z,2.42
2023-04-07T23:21:51.390Z,2.45
2023-04-07T23:24:17.828Z,2.15
2023-04-07T23:26:44.202Z,2.22
2023-04-07T23:29:10.494Z,2.58
2023-04-07T23:31:37.005Z,2.67
2023-04-07T23:34:04.409Z,3.40
2023-04-07T23:36:30.812Z,2.35
2023-04-07T23:38:57.195Z,3.00
2023-04-07T23:41:23.540Z,3.22
2023-04-07T23:43:50.098Z,2.35
2023-04-07T23:46:16.526Z,2.30
2023-04-07T23:48:43.175Z,2.38
2023-04-07T23:51:09.565Z,1.88
2023-04-07T23:53:35.932Z,2.33
2023-04-07T23:56:02.534Z,2.55
2023-04-07T23:58:29.120Z,2.10
